Terminal Aerodrome Forecast
Issued by NWS Sioux Falls, SD

Home | Current Version | Previous Version | Graphics & Text | Print | Product List | Glossary Off
Versions: 1 2 3 4 5 6 7 8 9 10 11 12 13 14 15 16 17 18 19

000
FTUS43 KFSD 260500
TAFFSD
TAF
KFSD 260521Z 2606/2706 VRB04KT P6SM BKN250
     FM260800 VRB04KT P6SM BKN150
      TEMPO 2608/2611 4SM BR
     FM261100 08006KT P6SM BKN130
      TEMPO 2611/2615 P6SM -SHRA BKN110
     FM261500 17006KT P6SM SCT110
     FM261800 26008KT P6SM SCT050=

USA.gov is the U.S. government's official web portal to all federal, state and local government web resources and services.